sensor_id;sensor_type;location;lat;lon;timestamp;P1;durP1;ratioP1;P2;durP2;ratioP2
49217;SDS011;35045;51.194;7.268;2022-08-02T00:01:53;7.25;;;4.50;;
49217;SDS011;35045;51.194;7.268;2022-08-02T00:04:18;10.65;;;5.50;;
49217;SDS011;35045;51.194;7.268;2022-08-02T00:06:44;8.27;;;4.30;;
49217;SDS011;35045;51.194;7.268;2022-08-02T00:09:09;6.72;;;4.68;;
49217;SDS011;35045;51.194;7.268;2022-08-02T00:11:34;7.28;;;4.47;;
49217;SDS011;35045;51.194;7.268;2022-08-02T00:13:59;7.18;;;4.55;;
49217;SDS011;35045;51.194;7.268;2022-08-02T00:16:24;8.70;;;4.60;;
49217;SDS011;35045;51.194;7.268;2022-08-02T00:18:49;8.20;;;4.72;;
49217;SDS011;35045;51.194;7.268;2022-08-02T00:21:14;9.05;;;4.60;;
49217;SDS011;35045;51.194;7.268;2022-08-02T00:23:39;7.55;;;4.97;;
49217;SDS011;35045;51.194;7.268;2022-08-02T00:26:04;9.60;;;4.78;;
49217;SDS011;35045;51.194;7.268;2022-08-02T00:28:29;7.80;;;4.65;;
49217;SDS011;35045;51.194;7.268;2022-08-02T00:30:57;7.88;;;5.03;;
49217;SDS011;35045;51.194;7.268;2022-08-02T00:33:23;7.97;;;4.43;;
49217;SDS011;35045;51.194;7.268;2022-08-02T00:35:48;9.27;;;4.82;;
49217;SDS011;35045;51.194;7.268;2022-08-02T00:38:13;9.25;;;4.90;;
49217;SDS011;35045;51.194;7.268;2022-08-02T00:40:39;7.93;;;4.65;;
49217;SDS011;35045;51.194;7.268;2022-08-02T00:45:31;8.20;;;4.97;;
49217;SDS011;35045;51.194;7.268;2022-08-02T00:48:00;9.52;;;5.10;;
49217;SDS011;35045;51.194;7.268;2022-08-02T00:50:26;7.63;;;4.97;;
49217;SDS011;35045;51.194;7.268;2022-08-02T00:52:52;9.90;;;5.45;;
49217;SDS011;35045;51.194;7.268;2022-08-02T00:57:42;11.85;;;5.65;;
49217;SDS011;35045;51.194;7.268;2022-08-02T01:00:07;7.43;;;4.13;;
49217;SDS011;35045;51.194;7.268;2022-08-02T01:02:33;8.80;;;4.68;;
49217;SDS011;35045;51.194;7.268;2022-08-02T01:04:58;8.40;;;4.90;;
49217;SDS011;35045;51.194;7.268;2022-08-02T01:07:23;7.55;;;5.18;;
49217;SDS011;35045;51.194;7.268;2022-08-02T01:09:48;8.00;;;4.93;;
49217;SDS011;35045;51.194;7.268;2022-08-02T01:12:13;9.32;;;5.13;;
49217;SDS011;35045;51.194;7.268;2022-08-02T01:14:42;10.18;;;5.10;;
49217;SDS011;35045;51.194;7.268;2022-08-02T01:17:11;6.97;;;4.80;;
49217;SDS011;35045;51.194;7.268;2022-08-02T01:28:38;9.20;;;4.53;;
49217;SDS011;35045;51.194;7.268;2022-08-02T01:31:25;7.80;;;4.78;;
49217;SDS011;35045;51.194;7.268;2022-08-02T01:34:15;9.05;;;4.80;;
49217;SDS011;35045;51.194;7.268;2022-08-02T01:36:48;7.05;;;4.40;;
49217;SDS011;35045;51.194;7.268;2022-08-02T01:39:22;7.60;;;5.00;;
49217;SDS011;35045;51.194;7.268;2022-08-02T01:41:50;7.15;;;4.38;;
49217;SDS011;35045;51.194;7.268;2022-08-02T01:44:17;6.03;;;4.20;;
49217;SDS011;35045;51.194;7.268;2022-08-02T01:46:45;7.93;;;4.70;;
49217;SDS011;35045;51.194;7.268;2022-08-02T01:49:14;8.98;;;4.75;;
49217;SDS011;35045;51.194;7.268;2022-08-02T01:51:41;6.32;;;4.20;;
49217;SDS011;35045;51.194;7.268;2022-08-02T01:54:28;8.27;;;5.07;;
49217;SDS011;35045;51.194;7.268;2022-08-02T01:56:55;9.07;;;4.50;;
49217;SDS011;35045;51.194;7.268;2022-08-02T01:59:22;7.45;;;4.47;;
49217;SDS011;35045;51.194;7.268;2022-08-02T02:01:50;6.18;;;4.10;;
49217;SDS011;35045;51.194;7.268;2022-08-02T02:04:17;9.88;;;4.68;;
49217;SDS011;35045;51.194;7.268;2022-08-02T02:06:44;6.30;;;4.20;;
49217;SDS011;35045;51.194;7.268;2022-08-02T02:09:14;8.25;;;4.25;;
49217;SDS011;35045;51.194;7.268;2022-08-02T02:11:40;6.32;;;4.20;;
49217;SDS011;35045;51.194;7.268;2022-08-02T02:14:07;6.43;;;4.00;;
49217;SDS011;35045;51.194;7.268;2022-08-02T02:16:34;8.35;;;4.45;;
49217;SDS011;35045;51.194;7.268;2022-08-02T02:19:01;8.15;;;4.18;;
49217;SDS011;35045;51.194;7.268;2022-08-02T02:21:27;7.43;;;4.60;;
49217;SDS011;35045;51.194;7.268;2022-08-02T02:26:18;6.43;;;4.22;;
49217;SDS011;35045;51.194;7.268;2022-08-02T02:31:10;7.93;;;4.40;;
49217;SDS011;35045;51.194;7.268;2022-08-02T02:33:43;6.45;;;4.05;;
49217;SDS011;35045;51.194;7.268;2022-08-02T02:36:13;7.90;;;4.15;;
49217;SDS011;35045;51.194;7.268;2022-08-02T02:38:44;6.53;;;3.90;;
49217;SDS011;35045;51.194;7.268;2022-08-02T02:41:11;7.30;;;4.70;;
49217;SDS011;35045;51.194;7.268;2022-08-02T02:43:37;7.45;;;4.60;;
49217;SDS011;35045;51.194;7.268;2022-08-02T02:46:03;8.70;;;5.15;;
49217;SDS011;35045;51.194;7.268;2022-08-02T02:48:30;9.75;;;6.07;;
49217;SDS011;35045;51.194;7.268;2022-08-02T02:50:55;8.68;;;6.07;;
49217;SDS011;35045;51.194;7.268;2022-08-02T02:53:21;10.82;;;5.60;;
49217;SDS011;35045;51.194;7.268;2022-08-02T02:55:47;7.57;;;5.00;;
49217;SDS011;35045;51.194;7.268;2022-08-02T02:58:13;8.82;;;5.82;;
49217;SDS011;35045;51.194;7.268;2022-08-02T03:00:39;7.80;;;5.45;;
49217;SDS011;35045;51.194;7.268;2022-08-02T03:03:22;8.90;;;6.15;;
49217;SDS011;35045;51.194;7.268;2022-08-02T03:05:49;9.88;;;5.75;;
49217;SDS011;35045;51.194;7.268;2022-08-02T03:08:14;8.38;;;5.22;;
49217;SDS011;35045;51.194;7.268;2022-08-02T03:10:39;8.05;;;5.75;;
49217;SDS011;35045;51.194;7.268;2022-08-02T03:13:05;8.48;;;5.78;;
49217;SDS011;35045;51.194;7.268;2022-08-02T03:15:31;7.95;;;5.88;;
49217;SDS011;35045;51.194;7.268;2022-08-02T03:17:57;9.65;;;5.57;;
49217;SDS011;35045;51.194;7.268;2022-08-02T03:20:22;10.05;;;5.55;;
49217;SDS011;35045;51.194;7.268;2022-08-02T03:22:48;11.52;;;6.35;;
49217;SDS011;35045;51.194;7.268;2022-08-02T03:27:39;9.77;;;6.50;;
49217;SDS011;35045;51.194;7.268;2022-08-02T03:30:05;9.02;;;6.55;;
49217;SDS011;35045;51.194;7.268;2022-08-02T03:32:31;11.38;;;6.53;;
49217;SDS011;35045;51.194;7.268;2022-08-02T03:34:58;9.13;;;7.00;;
49217;SDS011;35045;51.194;7.268;2022-08-02T03:37:23;9.98;;;7.90;;
49217;SDS011;35045;51.194;7.268;2022-08-02T03:39:50;10.32;;;7.30;;
49217;SDS011;35045;51.194;7.268;2022-08-02T03:42:17;8.93;;;7.47;;
49217;SDS011;35045;51.194;7.268;2022-08-02T03:44:43;9.20;;;6.63;;
49217;SDS011;35045;51.194;7.268;2022-08-02T03:47:08;10.13;;;6.68;;
49217;SDS011;35045;51.194;7.268;2022-08-02T03:49:34;9.90;;;6.75;;
49217;SDS011;35045;51.194;7.268;2022-08-02T03:52:00;10.98;;;7.43;;
49217;SDS011;35045;51.194;7.268;2022-08-02T03:54:26;9.40;;;6.82;;
49217;SDS011;35045;51.194;7.268;2022-08-02T03:56:51;9.40;;;7.13;;
49217;SDS011;35045;51.194;7.268;2022-08-02T03:59:16;8.35;;;6.47;;
49217;SDS011;35045;51.194;7.268;2022-08-02T04:01:42;11.57;;;7.25;;
49217;SDS011;35045;51.194;7.268;2022-08-02T04:04:07;9.10;;;6.53;;
49217;SDS011;35045;51.194;7.268;2022-08-02T04:08:57;9.13;;;6.18;;
49217;SDS011;35045;51.194;7.268;2022-08-02T04:11:22;8.00;;;5.45;;
49217;SDS011;35045;51.194;7.268;2022-08-02T04:14:01;9.30;;;7.00;;
49217;SDS011;35045;51.194;7.268;2022-08-02T04:16:41;9.90;;;7.60;;
49217;SDS011;35045;51.194;7.268;2022-08-02T04:19:14;10.52;;;6.55;;
49217;SDS011;35045;51.194;7.268;2022-08-02T04:21:43;11.45;;;6.82;;
49217;SDS011;35045;51.194;7.268;2022-08-02T04:24:10;9.30;;;6.43;;
49217;SDS011;35045;51.194;7.268;2022-08-02T04:26:37;10.00;;;6.82;;
49217;SDS011;35045;51.194;7.268;2022-08-02T04:29:07;10.50;;;7.53;;
49217;SDS011;35045;51.194;7.268;2022-08-02T04:31:34;9.85;;;7.65;;
49217;SDS011;35045;51.194;7.268;2022-08-02T04:33:59;10.30;;;6.85;;
49217;SDS011;35045;51.194;7.268;2022-08-02T04:36:25;9.82;;;6.85;;
49217;SDS011;35045;51.194;7.268;2022-08-02T04:38:50;10.52;;;7.43;;
49217;SDS011;35045;51.194;7.268;2022-08-02T04:41:15;8.75;;;6.95;;
49217;SDS011;35045;51.194;7.268;2022-08-02T04:43:40;10.93;;;6.85;;
49217;SDS011;35045;51.194;7.268;2022-08-02T04:46:05;9.02;;;6.72;;
49217;SDS011;35045;51.194;7.268;2022-08-02T04:48:31;8.90;;;7.18;;
49217;SDS011;35045;51.194;7.268;2022-08-02T04:50:56;9.65;;;8.05;;
49217;SDS011;35045;51.194;7.268;2022-08-02T04:53:21;11.35;;;8.32;;
49217;SDS011;35045;51.194;7.268;2022-08-02T04:55:46;9.75;;;7.85;;
49217;SDS011;35045;51.194;7.268;2022-08-02T04:58:12;9.10;;;7.03;;
49217;SDS011;35045;51.194;7.268;2022-08-02T05:00:37;13.50;;;9.45;;
49217;SDS011;35045;51.194;7.268;2022-08-02T05:03:02;10.65;;;8.93;;
49217;SDS011;35045;51.194;7.268;2022-08-02T05:05:28;12.00;;;9.50;;
49217;SDS011;35045;51.194;7.268;2022-08-02T05:07:53;12.88;;;9.38;;
49217;SDS011;35045;51.194;7.268;2022-08-02T05:10:18;12.90;;;10.25;;
49217;SDS011;35045;51.194;7.268;2022-08-02T05:12:43;12.50;;;10.00;;
49217;SDS011;35045;51.194;7.268;2022-08-02T05:15:10;13.68;;;10.35;;
49217;SDS011;35045;51.194;7.268;2022-08-02T05:17:36;13.00;;;10.10;;
49217;SDS011;35045;51.194;7.268;2022-08-02T05:20:01;11.25;;;9.63;;
49217;SDS011;35045;51.194;7.268;2022-08-02T05:22:28;12.02;;;10.13;;
49217;SDS011;35045;51.194;7.268;2022-08-02T05:24:53;11.25;;;9.80;;
49217;SDS011;35045;51.194;7.268;2022-08-02T05:27:18;13.73;;;10.43;;
49217;SDS011;35045;51.194;7.268;2022-08-02T05:29:43;11.55;;;9.50;;
49217;SDS011;35045;51.194;7.268;2022-08-02T05:32:08;14.20;;;10.25;;
49217;SDS011;35045;51.194;7.268;2022-08-02T05:34:33;12.50;;;10.60;;
49217;SDS011;35045;51.194;7.268;2022-08-02T05:36:58;13.57;;;10.40;;
49217;SDS011;35045;51.194;7.268;2022-08-02T05:39:23;17.40;;;11.02;;
49217;SDS011;35045;51.194;7.268;2022-08-02T05:41:48;14.43;;;11.63;;
49217;SDS011;35045;51.194;7.268;2022-08-02T05:44:13;14.35;;;11.35;;
49217;SDS011;35045;51.194;7.268;2022-08-02T05:46:38;15.85;;;11.85;;
49217;SDS011;35045;51.194;7.268;2022-08-02T05:49:03;12.25;;;10.38;;
49217;SDS011;35045;51.194;7.268;2022-08-02T05:51:38;13.93;;;11.35;;
49217;SDS011;35045;51.194;7.268;2022-08-02T05:54:09;14.48;;;10.80;;
49217;SDS011;35045;51.194;7.268;2022-08-02T05:56:55;15.48;;;10.95;;
49217;SDS011;35045;51.194;7.268;2022-08-02T05:59:48;13.68;;;10.60;;
49217;SDS011;35045;51.194;7.268;2022-08-02T06:02:25;14.10;;;10.43;;
49217;SDS011;35045;51.194;7.268;2022-08-02T06:07:37;14.40;;;11.43;;
49217;SDS011;35045;51.194;7.268;2022-08-02T06:10:06;12.80;;;10.48;;
49217;SDS011;35045;51.194;7.268;2022-08-02T06:12:34;14.20;;;10.20;;
49217;SDS011;35045;51.194;7.268;2022-08-02T06:15:04;13.63;;;10.15;;
49217;SDS011;35045;51.194;7.268;2022-08-02T06:17:30;14.63;;;10.70;;
49217;SDS011;35045;51.194;7.268;2022-08-02T06:19:56;13.73;;;11.38;;
49217;SDS011;35045;51.194;7.268;2022-08-02T06:22:24;13.20;;;11.07;;
49217;SDS011;35045;51.194;7.268;2022-08-02T06:24:51;13.80;;;10.35;;
49217;SDS011;35045;51.194;7.268;2022-08-02T06:27:18;14.32;;;10.80;;
49217;SDS011;35045;51.194;7.268;2022-08-02T06:29:44;14.30;;;10.73;;
49217;SDS011;35045;51.194;7.268;2022-08-02T06:32:11;12.55;;;9.98;;
49217;SDS011;35045;51.194;7.268;2022-08-02T06:34:38;13.68;;;10.40;;
49217;SDS011;35045;51.194;7.268;2022-08-02T06:42:56;13.98;;;10.43;;
49217;SDS011;35045;51.194;7.268;2022-08-02T06:45:32;13.70;;;10.80;;
49217;SDS011;35045;51.194;7.268;2022-08-02T06:47:59;13.55;;;11.02;;
49217;SDS011;35045;51.194;7.268;2022-08-02T06:50:25;15.38;;;11.23;;
49217;SDS011;35045;51.194;7.268;2022-08-02T06:52:50;14.55;;;10.48;;
49217;SDS011;35045;51.194;7.268;2022-08-02T06:55:16;12.93;;;9.68;;
49217;SDS011;35045;51.194;7.268;2022-08-02T06:57:41;17.20;;;10.00;;
49217;SDS011;35045;51.194;7.268;2022-08-02T07:00:06;14.10;;;10.63;;
49217;SDS011;35045;51.194;7.268;2022-08-02T07:02:34;12.15;;;9.68;;
49217;SDS011;35045;51.194;7.268;2022-08-02T07:04:59;12.25;;;9.70;;
49217;SDS011;35045;51.194;7.268;2022-08-02T07:07:25;11.27;;;9.27;;
49217;SDS011;35045;51.194;7.268;2022-08-02T07:09:51;10.73;;;7.07;;
49217;SDS011;35045;51.194;7.268;2022-08-02T07:12:16;11.15;;;7.05;;
49217;SDS011;35045;51.194;7.268;2022-08-02T07:14:41;11.93;;;7.60;;
49217;SDS011;35045;51.194;7.268;2022-08-02T07:17:06;9.75;;;6.38;;
49217;SDS011;35045;51.194;7.268;2022-08-02T07:19:31;11.65;;;6.68;;
49217;SDS011;35045;51.194;7.268;2022-08-02T07:21:56;10.05;;;7.32;;
49217;SDS011;35045;51.194;7.268;2022-08-02T07:24:21;11.40;;;6.30;;
49217;SDS011;35045;51.194;7.268;2022-08-02T07:26:46;9.90;;;5.60;;
49217;SDS011;35045;51.194;7.268;2022-08-02T07:29:11;9.55;;;5.70;;
49217;SDS011;35045;51.194;7.268;2022-08-02T07:31:36;10.52;;;5.32;;
49217;SDS011;35045;51.194;7.268;2022-08-02T07:34:01;7.97;;;4.55;;
49217;SDS011;35045;51.194;7.268;2022-08-02T07:36:26;9.18;;;5.20;;
49217;SDS011;35045;51.194;7.268;2022-08-02T07:38:51;6.90;;;4.05;;
49217;SDS011;35045;51.194;7.268;2022-08-02T07:41:16;7.90;;;4.20;;
49217;SDS011;35045;51.194;7.268;2022-08-02T07:43:41;7.70;;;3.95;;
49217;SDS011;35045;51.194;7.268;2022-08-02T07:46:06;7.25;;;3.70;;
49217;SDS011;35045;51.194;7.268;2022-08-02T07:48:31;8.23;;;3.95;;
49217;SDS011;35045;51.194;7.268;2022-08-02T07:50:56;7.82;;;3.80;;
49217;SDS011;35045;51.194;7.268;2022-08-02T07:53:22;7.22;;;3.40;;
49217;SDS011;35045;51.194;7.268;2022-08-02T07:58:12;8.15;;;3.67;;
49217;SDS011;35045;51.194;7.268;2022-08-02T08:00:37;7.43;;;3.10;;
49217;SDS011;35045;51.194;7.268;2022-08-02T08:03:02;7.45;;;3.00;;
49217;SDS011;35045;51.194;7.268;2022-08-02T08:05:27;5.75;;;3.05;;
49217;SDS011;35045;51.194;7.268;2022-08-02T08:07:52;5.85;;;2.83;;
49217;SDS011;35045;51.194;7.268;2022-08-02T08:10:17;10.55;;;2.90;;
49217;SDS011;35045;51.194;7.268;2022-08-02T08:12:42;9.07;;;3.33;;
49217;SDS011;35045;51.194;7.268;2022-08-02T08:15:07;6.90;;;2.85;;
49217;SDS011;35045;51.194;7.268;2022-08-02T08:17:32;8.73;;;3.30;;
49217;SDS011;35045;51.194;7.268;2022-08-02T08:19:58;6.43;;;3.08;;
49217;SDS011;35045;51.194;7.268;2022-08-02T08:22:24;6.85;;;2.50;;
49217;SDS011;35045;51.194;7.268;2022-08-02T08:24:49;5.30;;;2.47;;
49217;SDS011;35045;51.194;7.268;2022-08-02T08:27:17;6.07;;;2.90;;
49217;SDS011;35045;51.194;7.268;2022-08-02T08:29:43;9.57;;;2.72;;
49217;SDS011;35045;51.194;7.268;2022-08-02T08:32:09;6.65;;;2.70;;
49217;SDS011;35045;51.194;7.268;2022-08-02T08:34:35;7.22;;;3.17;;
49217;SDS011;35045;51.194;7.268;2022-08-02T08:37:00;6.47;;;3.28;;
49217;SDS011;35045;51.194;7.268;2022-08-02T08:39:27;7.75;;;3.08;;
49217;SDS011;35045;51.194;7.268;2022-08-02T08:41:52;7.07;;;3.22;;
49217;SDS011;35045;51.194;7.268;2022-08-02T08:44:17;8.32;;;2.25;;
49217;SDS011;35045;51.194;7.268;2022-08-02T08:46:42;4.55;;;1.85;;
49217;SDS011;35045;51.194;7.268;2022-08-02T08:49:11;6.28;;;2.08;;
49217;SDS011;35045;51.194;7.268;2022-08-02T08:51:46;5.70;;;2.30;;
49217;SDS011;35045;51.194;7.268;2022-08-02T08:54:13;5.93;;;2.45;;
49217;SDS011;35045;51.194;7.268;2022-08-02T08:56:40;7.05;;;3.00;;
49217;SDS011;35045;51.194;7.268;2022-08-02T08:59:06;5.97;;;2.40;;
49217;SDS011;35045;51.194;7.268;2022-08-02T09:01:31;5.43;;;1.95;;
49217;SDS011;35045;51.194;7.268;2022-08-02T09:03:57;5.60;;;2.15;;
49217;SDS011;35045;51.194;7.268;2022-08-02T09:06:22;6.07;;;2.50;;
49217;SDS011;35045;51.194;7.268;2022-08-02T09:08:48;6.10;;;2.83;;
49217;SDS011;35045;51.194;7.268;2022-08-02T09:11:14;5.53;;;2.15;;
49217;SDS011;35045;51.194;7.268;2022-08-02T09:13:56;6.82;;;2.28;;
49217;SDS011;35045;51.194;7.268;2022-08-02T09:21:47;6.25;;;2.28;;
49217;SDS011;35045;51.194;7.268;2022-08-02T09:24:23;5.95;;;2.80;;
49217;SDS011;35045;51.194;7.268;2022-08-02T09:26:49;6.10;;;2.40;;
49217;SDS011;35045;51.194;7.268;2022-08-02T09:29:14;5.35;;;2.30;;
49217;SDS011;35045;51.194;7.268;2022-08-02T09:31:41;6.32;;;2.50;;
49217;SDS011;35045;51.194;7.268;2022-08-02T09:34:07;6.05;;;2.80;;
49217;SDS011;35045;51.194;7.268;2022-08-02T09:36:42;4.75;;;2.28;;
49217;SDS011;35045;51.194;7.268;2022-08-02T09:39:10;5.22;;;2.30;;
49217;SDS011;35045;51.194;7.268;2022-08-02T09:41:40;5.53;;;2.50;;
49217;SDS011;35045;51.194;7.268;2022-08-02T09:44:10;6.03;;;2.60;;
49217;SDS011;35045;51.194;7.268;2022-08-02T09:49:04;4.82;;;2.00;;
49217;SDS011;35045;51.194;7.268;2022-08-02T09:51:38;4.88;;;2.08;;
49217;SDS011;35045;51.194;7.268;2022-08-02T09:54:15;6.00;;;3.08;;
49217;SDS011;35045;51.194;7.268;2022-08-02T09:56:46;6.63;;;2.38;;
49217;SDS011;35045;51.194;7.268;2022-08-02T09:59:13;6.18;;;2.67;;
49217;SDS011;35045;51.194;7.268;2022-08-02T10:01:39;5.82;;;2.35;;
49217;SDS011;35045;51.194;7.268;2022-08-02T10:04:07;5.72;;;2.05;;
49217;SDS011;35045;51.194;7.268;2022-08-02T10:06:35;4.50;;;2.15;;
49217;SDS011;35045;51.194;7.268;2022-08-02T10:09:01;5.10;;;2.38;;
49217;SDS011;35045;51.194;7.268;2022-08-02T10:11:27;5.35;;;2.45;;
49217;SDS011;35045;51.194;7.268;2022-08-02T10:13:52;4.55;;;2.17;;
49217;SDS011;35045;51.194;7.268;2022-08-02T10:16:19;4.78;;;2.10;;
49217;SDS011;35045;51.194;7.268;2022-08-02T10:18:46;4.55;;;2.10;;
49217;SDS011;35045;51.194;7.268;2022-08-02T10:23:38;4.53;;;1.80;;
49217;SDS011;35045;51.194;7.268;2022-08-02T10:26:06;4.60;;;1.95;;
49217;SDS011;35045;51.194;7.268;2022-08-02T10:28:32;4.38;;;2.00;;
49217;SDS011;35045;51.194;7.268;2022-08-02T10:30:58;4.85;;;1.88;;
49217;SDS011;35045;51.194;7.268;2022-08-02T10:33:25;5.25;;;1.75;;
49217;SDS011;35045;51.194;7.268;2022-08-02T10:35:52;4.22;;;1.90;;
49217;SDS011;35045;51.194;7.268;2022-08-02T10:38:21;5.88;;;2.30;;
49217;SDS011;35045;51.194;7.268;2022-08-02T10:49:02;6.97;;;2.45;;
49217;SDS011;35045;51.194;7.268;2022-08-02T10:54:38;4.95;;;2.33;;
49217;SDS011;35045;51.194;7.268;2022-08-02T10:59:40;6.53;;;2.40;;
49217;SDS011;35045;51.194;7.268;2022-08-02T11:02:05;6.53;;;2.20;;
49217;SDS011;35045;51.194;7.268;2022-08-02T11:07:17;6.18;;;2.80;;
49217;SDS011;35045;51.194;7.268;2022-08-02T11:09:45;5.38;;;2.67;;
49217;SDS011;35045;51.194;7.268;2022-08-02T11:12:15;5.93;;;2.60;;
49217;SDS011;35045;51.194;7.268;2022-08-02T11:14:42;6.90;;;2.75;;
49217;SDS011;35045;51.194;7.268;2022-08-02T11:17:13;6.63;;;2.45;;
49217;SDS011;35045;51.194;7.268;2022-08-02T11:22:36;6.43;;;2.53;;
49217;SDS011;35045;51.194;7.268;2022-08-02T11:27:45;6.32;;;2.65;;
49217;SDS011;35045;51.194;7.268;2022-08-02T11:30:13;4.93;;;2.17;;
49217;SDS011;35045;51.194;7.268;2022-08-02T11:32:38;5.72;;;2.60;;
49217;SDS011;35045;51.194;7.268;2022-08-02T11:35:04;7.32;;;2.30;;
49217;SDS011;35045;51.194;7.268;2022-08-02T11:37:33;4.82;;;2.38;;
49217;SDS011;35045;51.194;7.268;2022-08-02T11:40:07;10.52;;;2.67;;
49217;SDS011;35045;51.194;7.268;2022-08-02T11:42:34;4.65;;;2.05;;
49217;SDS011;35045;51.194;7.268;2022-08-02T11:45:04;6.10;;;2.28;;
49217;SDS011;35045;51.194;7.268;2022-08-02T11:47:50;5.13;;;2.13;;
49217;SDS011;35045;51.194;7.268;2022-08-02T11:50:16;6.85;;;2.20;;
49217;SDS011;35045;51.194;7.268;2022-08-02T11:52:43;4.97;;;2.10;;
49217;SDS011;35045;51.194;7.268;2022-08-02T11:55:09;4.40;;;1.83;;
49217;SDS011;35045;51.194;7.268;2022-08-02T11:57:35;5.03;;;2.00;;
49217;SDS011;35045;51.194;7.268;2022-08-02T12:00:00;6.07;;;2.25;;
49217;SDS011;35045;51.194;7.268;2022-08-02T12:02:28;4.50;;;1.67;;
49217;SDS011;35045;51.194;7.268;2022-08-02T12:04:56;4.95;;;1.90;;
49217;SDS011;35045;51.194;7.268;2022-08-02T12:07:26;6.00;;;2.13;;
49217;SDS011;35045;51.194;7.268;2022-08-02T12:09:51;4.68;;;2.00;;
49217;SDS011;35045;51.194;7.268;2022-08-02T12:12:16;5.40;;;2.10;;
49217;SDS011;35045;51.194;7.268;2022-08-02T12:14:42;6.85;;;1.88;;
49217;SDS011;35045;51.194;7.268;2022-08-02T12:17:07;5.72;;;1.60;;
49217;SDS011;35045;51.194;7.268;2022-08-02T12:19:51;4.47;;;2.00;;
49217;SDS011;35045;51.194;7.268;2022-08-02T12:22:18;5.07;;;2.58;;
49217;SDS011;35045;51.194;7.268;2022-08-02T12:24:47;5.45;;;1.83;;
49217;SDS011;35045;51.194;7.268;2022-08-02T12:30:15;4.57;;;1.90;;
49217;SDS011;35045;51.194;7.268;2022-08-02T12:32:42;4.55;;;1.85;;
49217;SDS011;35045;51.194;7.268;2022-08-02T12:35:12;4.75;;;1.90;;
49217;SDS011;35045;51.194;7.268;2022-08-02T12:37:40;5.68;;;2.00;;
49217;SDS011;35045;51.194;7.268;2022-08-02T12:43:00;4.93;;;1.88;;
49217;SDS011;35045;51.194;7.268;2022-08-02T12:45:28;6.72;;;2.00;;
49217;SDS011;35045;51.194;7.268;2022-08-02T12:47:56;5.47;;;1.90;;
49217;SDS011;35045;51.194;7.268;2022-08-02T12:50:27;5.63;;;1.80;;
49217;SDS011;35045;51.194;7.268;2022-08-02T12:55:29;6.78;;;1.90;;
49217;SDS011;35045;51.194;7.268;2022-08-02T12:57:57;6.13;;;1.90;;
49217;SDS011;35045;51.194;7.268;2022-08-02T13:00:34;4.72;;;2.00;;
49217;SDS011;35045;51.194;7.268;2022-08-02T13:03:00;4.55;;;1.90;;
49217;SDS011;35045;51.194;7.268;2022-08-02T13:05:25;6.03;;;2.28;;
49217;SDS011;35045;51.194;7.268;2022-08-02T13:07:53;6.55;;;2.08;;
49217;SDS011;35045;51.194;7.268;2022-08-02T13:10:19;5.90;;;1.90;;
49217;SDS011;35045;51.194;7.268;2022-08-02T13:12:45;4.28;;;1.80;;
49217;SDS011;35045;51.194;7.268;2022-08-02T13:15:10;5.20;;;2.05;;
49217;SDS011;35045;51.194;7.268;2022-08-02T13:17:35;5.55;;;2.28;;
49217;SDS011;35045;51.194;7.268;2022-08-02T13:20:00;7.18;;;2.33;;
49217;SDS011;35045;51.194;7.268;2022-08-02T13:22:26;4.43;;;1.80;;
49217;SDS011;35045;51.194;7.268;2022-08-02T13:24:51;4.32;;;1.85;;
49217;SDS011;35045;51.194;7.268;2022-08-02T13:27:16;5.55;;;1.98;;
49217;SDS011;35045;51.194;7.268;2022-08-02T13:29:42;5.22;;;2.38;;
49217;SDS011;35045;51.194;7.268;2022-08-02T13:32:08;4.72;;;2.20;;
49217;SDS011;35045;51.194;7.268;2022-08-02T13:34:33;5.78;;;2.58;;
49217;SDS011;35045;51.194;7.268;2022-08-02T13:36:58;5.88;;;2.00;;
49217;SDS011;35045;51.194;7.268;2022-08-02T13:39:23;6.60;;;2.25;;
49217;SDS011;35045;51.194;7.268;2022-08-02T13:41:48;4.95;;;2.47;;
49217;SDS011;35045;51.194;7.268;2022-08-02T13:44:13;6.22;;;2.40;;
49217;SDS011;35045;51.194;7.268;2022-08-02T13:46:38;7.25;;;2.03;;
49217;SDS011;35045;51.194;7.268;2022-08-02T13:49:04;6.82;;;2.22;;
49217;SDS011;35045;51.194;7.268;2022-08-02T13:51:29;8.27;;;1.90;;
49217;SDS011;35045;51.194;7.268;2022-08-02T13:53:54;4.82;;;1.98;;
49217;SDS011;35045;51.194;7.268;2022-08-02T13:56:19;5.25;;;1.90;;
49217;SDS011;35045;51.194;7.268;2022-08-02T13:58:44;6.55;;;2.00;;
49217;SDS011;35045;51.194;7.268;2022-08-02T14:01:09;6.82;;;2.10;;
49217;SDS011;35045;51.194;7.268;2022-08-02T14:03:34;7.90;;;1.98;;
49217;SDS011;35045;51.194;7.268;2022-08-02T14:05:59;5.68;;;1.88;;
49217;SDS011;35045;51.194;7.268;2022-08-02T14:08:24;4.90;;;1.70;;
49217;SDS011;35045;51.194;7.268;2022-08-02T14:10:50;4.07;;;1.60;;
49217;SDS011;35045;51.194;7.268;2022-08-02T14:13:15;3.72;;;1.38;;
49217;SDS011;35045;51.194;7.268;2022-08-02T14:15:41;4.65;;;1.73;;
49217;SDS011;35045;51.194;7.268;2022-08-02T14:18:06;4.40;;;1.70;;
49217;SDS011;35045;51.194;7.268;2022-08-02T14:20:31;4.63;;;1.50;;
49217;SDS011;35045;51.194;7.268;2022-08-02T14:22:56;5.38;;;1.67;;
49217;SDS011;35045;51.194;7.268;2022-08-02T14:25:21;4.75;;;1.65;;
49217;SDS011;35045;51.194;7.268;2022-08-02T14:27:46;6.00;;;1.98;;
49217;SDS011;35045;51.194;7.268;2022-08-02T14:30:11;4.78;;;1.50;;
49217;SDS011;35045;51.194;7.268;2022-08-02T14:32:37;4.22;;;1.65;;
49217;SDS011;35045;51.194;7.268;2022-08-02T14:35:02;4.63;;;1.42;;
49217;SDS011;35045;51.194;7.268;2022-08-02T14:37:27;5.78;;;1.70;;
49217;SDS011;35045;51.194;7.268;2022-08-02T14:39:52;6.18;;;1.48;;
49217;SDS011;35045;51.194;7.268;2022-08-02T14:42:17;4.47;;;1.98;;
49217;SDS011;35045;51.194;7.268;2022-08-02T14:44:42;3.38;;;1.50;;
49217;SDS011;35045;51.194;7.268;2022-08-02T14:47:07;5.07;;;1.52;;
49217;SDS011;35045;51.194;7.268;2022-08-02T14:49:33;5.25;;;1.45;;
49217;SDS011;35045;51.194;7.268;2022-08-02T14:51:58;3.72;;;1.35;;
49217;SDS011;35045;51.194;7.268;2022-08-02T14:54:24;4.55;;;1.52;;
49217;SDS011;35045;51.194;7.268;2022-08-02T14:56:52;3.38;;;1.20;;
49217;SDS011;35045;51.194;7.268;2022-08-02T14:59:17;8.93;;;3.55;;
49217;SDS011;35045;51.194;7.268;2022-08-02T15:01:42;4.80;;;1.52;;
49217;SDS011;35045;51.194;7.268;2022-08-02T15:04:07;3.80;;;1.20;;
49217;SDS011;35045;51.194;7.268;2022-08-02T15:06:32;5.63;;;1.52;;
49217;SDS011;35045;51.194;7.268;2022-08-02T15:08:57;4.63;;;1.35;;
49217;SDS011;35045;51.194;7.268;2022-08-02T15:11:23;4.32;;;1.55;;
49217;SDS011;35045;51.194;7.268;2022-08-02T15:13:48;4.38;;;1.60;;
49217;SDS011;35045;51.194;7.268;2022-08-02T15:16:13;6.35;;;1.77;;
49217;SDS011;35045;51.194;7.268;2022-08-02T15:18:38;4.25;;;1.50;;
49217;SDS011;35045;51.194;7.268;2022-08-02T15:21:03;3.80;;;1.42;;
49217;SDS011;35045;51.194;7.268;2022-08-02T15:23:29;4.07;;;1.40;;
49217;SDS011;35045;51.194;7.268;2022-08-02T15:25:54;5.15;;;1.60;;
49217;SDS011;35045;51.194;7.268;2022-08-02T15:28:19;4.80;;;1.50;;
49217;SDS011;35045;51.194;7.268;2022-08-02T15:30:44;4.30;;;1.42;;
49217;SDS011;35045;51.194;7.268;2022-08-02T15:33:09;5.22;;;1.40;;
49217;SDS011;35045;51.194;7.268;2022-08-02T15:35:34;4.93;;;1.60;;
49217;SDS011;35045;51.194;7.268;2022-08-02T15:37:59;7.47;;;1.70;;
49217;SDS011;35045;51.194;7.268;2022-08-02T15:40:25;4.03;;;1.35;;
49217;SDS011;35045;51.194;7.268;2022-08-02T15:42:50;3.45;;;1.40;;
49217;SDS011;35045;51.194;7.268;2022-08-02T15:45:15;4.35;;;1.52;;
49217;SDS011;35045;51.194;7.268;2022-08-02T15:47:41;4.72;;;1.40;;
49217;SDS011;35045;51.194;7.268;2022-08-02T15:50:07;4.25;;;1.50;;
49217;SDS011;35045;51.194;7.268;2022-08-02T15:52:32;5.38;;;1.90;;
49217;SDS011;35045;51.194;7.268;2022-08-02T15:54:57;4.30;;;1.60;;
49217;SDS011;35045;51.194;7.268;2022-08-02T15:57:22;3.67;;;1.35;;